sensor_id;sensor_type;location;lat;lon;timestamp;temperature;humidity
17333;DHT22;8784;50.94667800;7.08448400;2023-04-28T00:01:17;13.60;62.40
17333;DHT22;8784;50.94667800;7.08448400;2023-04-28T00:03:43;13.60;62.60
17333;DHT22;8784;50.94667800;7.08448400;2023-04-28T00:06:10;13.50;62.80
17333;DHT22;8784;50.94667800;7.08448400;2023-04-28T00:08:38;13.30;63.20
17333;DHT22;8784;50.94667800;7.08448400;2023-04-28T00:11:08;13.30;63.70
17333;DHT22;8784;50.94667800;7.08448400;2023-04-28T00:13:35;13.40;64.00
17333;DHT22;8784;50.94667800;7.08448400;2023-04-28T00:16:02;13.40;64.30
17333;DHT22;8784;50.94667800;7.08448400;2023-04-28T00:18:30;13.40;64.20
17333;DHT22;8784;50.94667800;7.08448400;2023-04-28T00:20:58;13.40;64.50
17333;DHT22;8784;50.94667800;7.08448400;2023-04-28T00:23:26;13.30;64.50
17333;DHT22;8784;50.94667800;7.08448400;2023-04-28T00:25:53;13.30;64.70
17333;DHT22;8784;50.94667800;7.08448400;2023-04-28T00:28:21;13.20;65.00
17333;DHT22;8784;50.94667800;7.08448400;2023-04-28T00:30:48;13.20;65.10
17333;DHT22;8784;50.94667800;7.08448400;2023-04-28T00:33:15;13.30;65.20
17333;DHT22;8784;50.94667800;7.08448400;2023-04-28T00:35:43;13.30;65.10
17333;DHT22;8784;50.94667800;7.08448400;2023-04-28T00:38:10;13.30;65.10
17333;DHT22;8784;50.94667800;7.08448400;2023-04-28T00:40:38;13.30;65.00
17333;DHT22;8784;50.94667800;7.08448400;2023-04-28T00:43:05;13.30;65.10
17333;DHT22;8784;50.94667800;7.08448400;2023-04-28T00:45:31;13.30;65.00
17333;DHT22;8784;50.94667800;7.08448400;2023-04-28T00:47:58;13.40;64.90
17333;DHT22;8784;50.94667800;7.08448400;2023-04-28T00:50:26;13.40;65.20
17333;DHT22;8784;50.94667800;7.08448400;2023-04-28T00:52:55;13.30;65.60
17333;DHT22;8784;50.94667800;7.08448400;2023-04-28T00:55:24;13.30;65.30
17333;DHT22;8784;50.94667800;7.08448400;2023-04-28T00:57:52;13.30;65.20
17333;DHT22;8784;50.94667800;7.08448400;2023-04-28T01:00:21;13.30;65.10
17333;DHT22;8784;50.94667800;7.08448400;2023-04-28T01:02:49;13.40;65.30
17333;DHT22;8784;50.94667800;7.08448400;2023-04-28T01:05:16;13.40;65.40
17333;DHT22;8784;50.94667800;7.08448400;2023-04-28T01:07:43;13.30;65.20
17333;DHT22;8784;50.94667800;7.08448400;2023-04-28T01:10:11;13.40;65.40
17333;DHT22;8784;50.94667800;7.08448400;2023-04-28T01:12:38;13.40;65.60
17333;DHT22;8784;50.94667800;7.08448400;2023-04-28T01:15:07;13.40;65.50
17333;DHT22;8784;50.94667800;7.08448400;2023-04-28T01:17:37;13.40;65.40
17333;DHT22;8784;50.94667800;7.08448400;2023-04-28T01:20:05;13.30;65.80
17333;DHT22;8784;50.94667800;7.08448400;2023-04-28T01:22:33;13.00;66.60
17333;DHT22;8784;50.94667800;7.08448400;2023-04-28T01:25:01;12.60;67.80
17333;DHT22;8784;50.94667800;7.08448400;2023-04-28T01:27:28;12.30;69.10
17333;DHT22;8784;50.94667800;7.08448400;2023-04-28T01:29:55;12.20;70.90
17333;DHT22;8784;50.94667800;7.08448400;2023-04-28T01:32:22;11.90;71.80
17333;DHT22;8784;50.94667800;7.08448400;2023-04-28T01:34:49;11.70;72.80
17333;DHT22;8784;50.94667800;7.08448400;2023-04-28T01:37:16;11.40;73.80
17333;DHT22;8784;50.94667800;7.08448400;2023-04-28T01:39:43;11.30;74.70
17333;DHT22;8784;50.94667800;7.08448400;2023-04-28T01:42:14;11.10;75.80
17333;DHT22;8784;50.94667800;7.08448400;2023-04-28T01:44:41;11.00;77.10
17333;DHT22;8784;50.94667800;7.08448400;2023-04-28T01:47:07;10.90;77.50
17333;DHT22;8784;50.94667800;7.08448400;2023-04-28T01:49:35;10.90;77.80
17333;DHT22;8784;50.94667800;7.08448400;2023-04-28T01:52:01;11.00;78.30
17333;DHT22;8784;50.94667800;7.08448400;2023-04-28T01:54:47;10.90;78.50
17333;DHT22;8784;50.94667800;7.08448400;2023-04-28T01:57:15;10.80;78.80
17333;DHT22;8784;50.94667800;7.08448400;2023-04-28T01:59:42;10.80;78.90
17333;DHT22;8784;50.94667800;7.08448400;2023-04-28T02:02:09;10.80;79.40
17333;DHT22;8784;50.94667800;7.08448400;2023-04-28T02:04:37;10.80;79.60
17333;DHT22;8784;50.94667800;7.08448400;2023-04-28T02:07:04;10.80;79.90
17333;DHT22;8784;50.94667800;7.08448400;2023-04-28T02:09:31;10.80;80.10
17333;DHT22;8784;50.94667800;7.08448400;2023-04-28T02:11:58;10.90;80.10
17333;DHT22;8784;50.94667800;7.08448400;2023-04-28T02:14:28;11.00;80.20
17333;DHT22;8784;50.94667800;7.08448400;2023-04-28T02:16:57;11.10;80.30
17333;DHT22;8784;50.94667800;7.08448400;2023-04-28T02:19:24;11.20;80.10
17333;DHT22;8784;50.94667800;7.08448400;2023-04-28T02:21:51;11.20;80.30
17333;DHT22;8784;50.94667800;7.08448400;2023-04-28T02:24:18;11.30;80.60
17333;DHT22;8784;50.94667800;7.08448400;2023-04-28T02:26:45;11.30;80.50
17333;DHT22;8784;50.94667800;7.08448400;2023-04-28T02:29:11;11.30;80.90
17333;DHT22;8784;50.94667800;7.08448400;2023-04-28T02:31:40;11.20;81.00
17333;DHT22;8784;50.94667800;7.08448400;2023-04-28T02:34:06;11.10;81.30
17333;DHT22;8784;50.94667800;7.08448400;2023-04-28T02:36:33;11.20;81.70
17333;DHT22;8784;50.94667800;7.08448400;2023-04-28T02:39:00;11.20;81.90
17333;DHT22;8784;50.94667800;7.08448400;2023-04-28T02:41:27;11.10;82.40
17333;DHT22;8784;50.94667800;7.08448400;2023-04-28T02:43:55;11.00;82.50
17333;DHT22;8784;50.94667800;7.08448400;2023-04-28T02:46:22;11.00;83.20
17333;DHT22;8784;50.94667800;7.08448400;2023-04-28T02:48:56;11.00;83.40
17333;DHT22;8784;50.94667800;7.08448400;2023-04-28T02:51:23;11.00;83.30
17333;DHT22;8784;50.94667800;7.08448400;2023-04-28T02:53:49;11.00;83.40
17333;DHT22;8784;50.94667800;7.08448400;2023-04-28T02:56:16;11.00;83.50
17333;DHT22;8784;50.94667800;7.08448400;2023-04-28T02:58:43;11.00;83.90
17333;DHT22;8784;50.94667800;7.08448400;2023-04-28T03:01:10;11.00;84.60
17333;DHT22;8784;50.94667800;7.08448400;2023-04-28T03:03:37;11.00;84.70
17333;DHT22;8784;50.94667800;7.08448400;2023-04-28T03:06:05;11.10;85.00
17333;DHT22;8784;50.94667800;7.08448400;2023-04-28T03:08:32;11.10;85.00
17333;DHT22;8784;50.94667800;7.08448400;2023-04-28T03:10:59;11.10;85.20
17333;DHT22;8784;50.94667800;7.08448400;2023-04-28T03:13:26;11.10;85.10
17333;DHT22;8784;50.94667800;7.08448400;2023-04-28T03:15:54;11.20;85.00
17333;DHT22;8784;50.94667800;7.08448400;2023-04-28T03:18:21;11.20;85.10
17333;DHT22;8784;50.94667800;7.08448400;2023-04-28T03:20:48;11.20;85.00
17333;DHT22;8784;50.94667800;7.08448400;2023-04-28T03:23:16;11.20;85.40
17333;DHT22;8784;50.94667800;7.08448400;2023-04-28T03:25:43;11.30;85.90
17333;DHT22;8784;50.94667800;7.08448400;2023-04-28T03:28:10;11.20;85.50
17333;DHT22;8784;50.94667800;7.08448400;2023-04-28T03:30:37;11.20;85.80
17333;DHT22;8784;50.94667800;7.08448400;2023-04-28T03:33:04;11.10;86.20
17333;DHT22;8784;50.94667800;7.08448400;2023-04-28T03:35:31;11.10;86.40
17333;DHT22;8784;50.94667800;7.08448400;2023-04-28T03:37:58;11.10;86.90
17333;DHT22;8784;50.94667800;7.08448400;2023-04-28T03:40:26;11.20;87.10
17333;DHT22;8784;50.94667800;7.08448400;2023-04-28T03:42:53;11.20;87.30
17333;DHT22;8784;50.94667800;7.08448400;2023-04-28T03:45:20;11.30;87.60
17333;DHT22;8784;50.94667800;7.08448400;2023-04-28T03:47:47;11.40;87.70
17333;DHT22;8784;50.94667800;7.08448400;2023-04-28T03:50:14;11.50;87.70
17333;DHT22;8784;50.94667800;7.08448400;2023-04-28T03:52:41;11.50;87.80
17333;DHT22;8784;50.94667800;7.08448400;2023-04-28T03:55:08;11.50;88.00
17333;DHT22;8784;50.94667800;7.08448400;2023-04-28T03:57:37;11.40;88.70
17333;DHT22;8784;50.94667800;7.08448400;2023-04-28T04:00:04;11.20;89.70
17333;DHT22;8784;50.94667800;7.08448400;2023-04-28T04:02:32;11.00;90.10
17333;DHT22;8784;50.94667800;7.08448400;2023-04-28T04:04:59;10.90;90.90
17333;DHT22;8784;50.94667800;7.08448400;2023-04-28T04:07:26;10.70;91.50
17333;DHT22;8784;50.94667800;7.08448400;2023-04-28T04:09:53;10.50;92.30
17333;DHT22;8784;50.94667800;7.08448400;2023-04-28T04:12:19;10.40;93.10
17333;DHT22;8784;50.94667800;7.08448400;2023-04-28T04:14:48;10.30;93.80
17333;DHT22;8784;50.94667800;7.08448400;2023-04-28T04:17:15;10.30;95.00
17333;DHT22;8784;50.94667800;7.08448400;2023-04-28T04:19:42;10.30;95.90
17333;DHT22;8784;50.94667800;7.08448400;2023-04-28T04:22:08;10.20;96.40
17333;DHT22;8784;50.94667800;7.08448400;2023-04-28T04:24:35;10.20;97.10
17333;DHT22;8784;50.94667800;7.08448400;2023-04-28T04:27:02;10.30;98.00
17333;DHT22;8784;50.94667800;7.08448400;2023-04-28T04:29:29;10.40;98.70
17333;DHT22;8784;50.94667800;7.08448400;2023-04-28T04:31:57;10.50;99.00
17333;DHT22;8784;50.94667800;7.08448400;2023-04-28T04:34:24;10.60;99.10
17333;DHT22;8784;50.94667800;7.08448400;2023-04-28T04:36:51;10.80;98.80
17333;DHT22;8784;50.94667800;7.08448400;2023-04-28T04:39:18;10.90;99.10
17333;DHT22;8784;50.94667800;7.08448400;2023-04-28T04:41:45;10.90;98.90
17333;DHT22;8784;50.94667800;7.08448400;2023-04-28T04:44:11;11.00;99.20
17333;DHT22;8784;50.94667800;7.08448400;2023-04-28T04:46:38;10.90;99.40
17333;DHT22;8784;50.94667800;7.08448400;2023-04-28T04:49:06;11.00;99.50
17333;DHT22;8784;50.94667800;7.08448400;2023-04-28T04:51:33;11.00;99.80
17333;DHT22;8784;50.94667800;7.08448400;2023-04-28T04:54:00;11.00;99.70
17333;DHT22;8784;50.94667800;7.08448400;2023-04-28T04:56:27;11.10;99.80
17333;DHT22;8784;50.94667800;7.08448400;2023-04-28T04:58:54;11.10;99.90
17333;DHT22;8784;50.94667800;7.08448400;2023-04-28T05:01:21;11.10;99.90
17333;DHT22;8784;50.94667800;7.08448400;2023-04-28T05:03:47;11.20;99.80
17333;DHT22;8784;50.94667800;7.08448400;2023-04-28T05:06:16;11.20;99.90
17333;DHT22;8784;50.94667800;7.08448400;2023-04-28T05:08:43;11.20;99.90
17333;DHT22;8784;50.94667800;7.08448400;2023-04-28T05:11:09;11.30;99.90
17333;DHT22;8784;50.94667800;7.08448400;2023-04-28T05:13:36;11.30;99.90
17333;DHT22;8784;50.94667800;7.08448400;2023-04-28T05:16:05;11.40;99.90
17333;DHT22;8784;50.94667800;7.08448400;2023-04-28T05:18:32;11.50;99.90
17333;DHT22;8784;50.94667800;7.08448400;2023-04-28T05:20:59;11.50;99.90
17333;DHT22;8784;50.94667800;7.08448400;2023-04-28T05:23:28;11.50;99.90
17333;DHT22;8784;50.94667800;7.08448400;2023-04-28T05:25:55;11.60;99.90
17333;DHT22;8784;50.94667800;7.08448400;2023-04-28T05:28:22;11.60;99.90
17333;DHT22;8784;50.94667800;7.08448400;2023-04-28T05:30:49;11.70;99.90
17333;DHT22;8784;50.94667800;7.08448400;2023-04-28T05:33:15;11.70;99.90
17333;DHT22;8784;50.94667800;7.08448400;2023-04-28T05:35:42;11.70;99.90
17333;DHT22;8784;50.94667800;7.08448400;2023-04-28T05:38:09;11.70;99.90
17333;DHT22;8784;50.94667800;7.08448400;2023-04-28T05:40:38;11.70;99.90
17333;DHT22;8784;50.94667800;7.08448400;2023-04-28T05:43:04;11.80;99.90
17333;DHT22;8784;50.94667800;7.08448400;2023-04-28T05:45:31;11.70;99.90
17333;DHT22;8784;50.94667800;7.08448400;2023-04-28T05:47:58;11.70;99.90
17333;DHT22;8784;50.94667800;7.08448400;2023-04-28T05:50:25;11.70;99.90
17333;DHT22;8784;50.94667800;7.08448400;2023-04-28T05:52:52;11.80;99.90
17333;DHT22;8784;50.94667800;7.08448400;2023-04-28T05:55:19;11.70;99.90
17333;DHT22;8784;50.94667800;7.08448400;2023-04-28T05:57:47;11.70;99.90
17333;DHT22;8784;50.94667800;7.08448400;2023-04-28T06:00:15;11.70;99.90
17333;DHT22;8784;50.94667800;7.08448400;2023-04-28T06:02:42;11.70;99.90
17333;DHT22;8784;50.94667800;7.08448400;2023-04-28T06:05:09;11.60;99.90
17333;DHT22;8784;50.94667800;7.08448400;2023-04-28T06:07:36;11.50;99.90
17333;DHT22;8784;50.94667800;7.08448400;2023-04-28T06:10:03;11.30;99.90
17333;DHT22;8784;50.94667800;7.08448400;2023-04-28T06:12:30;11.20;99.90
17333;DHT22;8784;50.94667800;7.08448400;2023-04-28T06:14:59;11.10;99.90
17333;DHT22;8784;50.94667800;7.08448400;2023-04-28T06:17:25;11.10;99.90
17333;DHT22;8784;50.94667800;7.08448400;2023-04-28T06:19:54;11.20;99.90
17333;DHT22;8784;50.94667800;7.08448400;2023-04-28T06:22:23;11.20;99.90
17333;DHT22;8784;50.94667800;7.08448400;2023-04-28T06:24:50;11.30;99.90
17333;DHT22;8784;50.94667800;7.08448400;2023-04-28T06:27:17;11.50;99.90
17333;DHT22;8784;50.94667800;7.08448400;2023-04-28T06:29:44;11.60;99.90
17333;DHT22;8784;50.94667800;7.08448400;2023-04-28T06:32:12;11.60;99.90
17333;DHT22;8784;50.94667800;7.08448400;2023-04-28T06:34:39;11.70;99.90
17333;DHT22;8784;50.94667800;7.08448400;2023-04-28T06:37:06;11.80;99.90
17333;DHT22;8784;50.94667800;7.08448400;2023-04-28T06:39:33;11.70;99.90
17333;DHT22;8784;50.94667800;7.08448400;2023-04-28T06:42:00;11.80;99.90
17333;DHT22;8784;50.94667800;7.08448400;2023-04-28T06:44:27;11.80;99.90
17333;DHT22;8784;50.94667800;7.08448400;2023-04-28T06:46:54;11.90;99.90
17333;DHT22;8784;50.94667800;7.08448400;2023-04-28T06:49:22;12.00;99.90
17333;DHT22;8784;50.94667800;7.08448400;2023-04-28T06:51:51;12.20;99.90
17333;DHT22;8784;50.94667800;7.08448400;2023-04-28T06:54:17;12.40;99.90
17333;DHT22;8784;50.94667800;7.08448400;2023-04-28T06:56:46;12.50;99.90
17333;DHT22;8784;50.94667800;7.08448400;2023-04-28T06:59:12;12.50;99.90
17333;DHT22;8784;50.94667800;7.08448400;2023-04-28T07:01:39;12.50;99.90
17333;DHT22;8784;50.94667800;7.08448400;2023-04-28T07:04:06;12.60;99.90
17333;DHT22;8784;50.94667800;7.08448400;2023-04-28T07:06:34;12.60;99.90
17333;DHT22;8784;50.94667800;7.08448400;2023-04-28T07:09:01;12.80;99.90
17333;DHT22;8784;50.94667800;7.08448400;2023-04-28T07:11:29;13.00;99.90
17333;DHT22;8784;50.94667800;7.08448400;2023-04-28T07:13:57;13.10;99.90
17333;DHT22;8784;50.94667800;7.08448400;2023-04-28T07:16:25;13.00;99.90
17333;DHT22;8784;50.94667800;7.08448400;2023-04-28T07:18:52;13.00;99.90
17333;DHT22;8784;50.94667800;7.08448400;2023-04-28T07:21:18;13.10;99.90
17333;DHT22;8784;50.94667800;7.08448400;2023-04-28T07:23:47;13.10;99.90
17333;DHT22;8784;50.94667800;7.08448400;2023-04-28T07:26:14;13.10;99.90
17333;DHT22;8784;50.94667800;7.08448400;2023-04-28T07:28:42;13.20;99.90
17333;DHT22;8784;50.94667800;7.08448400;2023-04-28T07:31:09;13.20;99.90
17333;DHT22;8784;50.94667800;7.08448400;2023-04-28T07:33:36;13.30;99.90
17333;DHT22;8784;50.94667800;7.08448400;2023-04-28T07:36:03;13.30;99.90
17333;DHT22;8784;50.94667800;7.08448400;2023-04-28T07:38:30;13.30;99.90
17333;DHT22;8784;50.94667800;7.08448400;2023-04-28T07:41:01;13.30;99.90
17333;DHT22;8784;50.94667800;7.08448400;2023-04-28T07:43:28;13.30;99.90
17333;DHT22;8784;50.94667800;7.08448400;2023-04-28T07:45:58;13.30;99.90
17333;DHT22;8784;50.94667800;7.08448400;2023-04-28T07:48:27;13.30;99.90
17333;DHT22;8784;50.94667800;7.08448400;2023-04-28T07:50:54;13.20;99.90
17333;DHT22;8784;50.94667800;7.08448400;2023-04-28T07:53:22;13.40;99.90
17333;DHT22;8784;50.94667800;7.08448400;2023-04-28T07:55:49;13.70;99.90
17333;DHT22;8784;50.94667800;7.08448400;2023-04-28T07:58:18;13.90;99.90
17333;DHT22;8784;50.94667800;7.08448400;2023-04-28T08:00:45;14.00;99.90
17333;DHT22;8784;50.94667800;7.08448400;2023-04-28T08:03:12;14.40;99.90
17333;DHT22;8784;50.94667800;7.08448400;2023-04-28T08:05:40;14.60;99.90
17333;DHT22;8784;50.94667800;7.08448400;2023-04-28T08:08:07;14.60;99.90
17333;DHT22;8784;50.94667800;7.08448400;2023-04-28T08:10:34;14.80;99.90
17333;DHT22;8784;50.94667800;7.08448400;2023-04-28T08:13:02;15.00;99.90
17333;DHT22;8784;50.94667800;7.08448400;2023-04-28T08:15:31;15.00;99.90
17333;DHT22;8784;50.94667800;7.08448400;2023-04-28T08:17:58;15.20;99.90
17333;DHT22;8784;50.94667800;7.08448400;2023-04-28T08:20:25;15.30;99.90
17333;DHT22;8784;50.94667800;7.08448400;2023-04-28T08:22:54;15.60;99.90
17333;DHT22;8784;50.94667800;7.08448400;2023-04-28T08:25:21;15.90;99.90
17333;DHT22;8784;50.94667800;7.08448400;2023-04-28T08:27:48;16.00;99.90
17333;DHT22;8784;50.94667800;7.08448400;2023-04-28T08:30:15;17.00;99.90
17333;DHT22;8784;50.94667800;7.08448400;2023-04-28T08:32:44;18.80;99.60
17333;DHT22;8784;50.94667800;7.08448400;2023-04-28T08:35:12;19.60;97.20
17333;DHT22;8784;50.94667800;7.08448400;2023-04-28T08:37:40;19.50;95.20
17333;DHT22;8784;50.94667800;7.08448400;2023-04-28T08:40:08;19.00;95.10
17333;DHT22;8784;50.94667800;7.08448400;2023-04-28T08:42:36;18.40;94.90
17333;DHT22;8784;50.94667800;7.08448400;2023-04-28T08:45:04;17.70;95.50
17333;DHT22;8784;50.94667800;7.08448400;2023-04-28T08:47:33;17.40;96.00
17333;DHT22;8784;50.94667800;7.08448400;2023-04-28T08:50:13;17.00;96.30
17333;DHT22;8784;50.94667800;7.08448400;2023-04-28T08:52:41;16.90;96.80
17333;DHT22;8784;50.94667800;7.08448400;2023-04-28T08:55:10;16.80;96.90
17333;DHT22;8784;50.94667800;7.08448400;2023-04-28T08:57:41;16.80;97.20
17333;DHT22;8784;50.94667800;7.08448400;2023-04-28T09:00:10;16.90;97.30
17333;DHT22;8784;50.94667800;7.08448400;2023-04-28T09:02:38;16.90;97.20
17333;DHT22;8784;50.94667800;7.08448400;2023-04-28T09:05:09;16.90;97.20
17333;DHT22;8784;50.94667800;7.08448400;2023-04-28T09:07:36;16.90;97.20
17333;DHT22;8784;50.94667800;7.08448400;2023-04-28T09:10:15;16.90;97.30
17333;DHT22;8784;50.94667800;7.08448400;2023-04-28T09:12:43;16.80;97.30
17333;DHT22;8784;50.94667800;7.08448400;2023-04-28T09:15:24;16.80;97.50
17333;DHT22;8784;50.94667800;7.08448400;2023-04-28T09:17:54;16.80;97.50
17333;DHT22;8784;50.94667800;7.08448400;2023-04-28T09:20:24;16.80;97.50
17333;DHT22;8784;50.94667800;7.08448400;2023-04-28T09:22:53;16.60;97.80
17333;DHT22;8784;50.94667800;7.08448400;2023-04-28T09:25:21;16.60;98.00
17333;DHT22;8784;50.94667800;7.08448400;2023-04-28T09:27:51;16.50;98.30
17333;DHT22;8784;50.94667800;7.08448400;2023-04-28T09:30:18;16.40;98.50
17333;DHT22;8784;50.94667800;7.08448400;2023-04-28T09:33:03;16.30;98.80
17333;DHT22;8784;50.94667800;7.08448400;2023-04-28T09:35:40;16.00;99.70
17333;DHT22;8784;50.94667800;7.08448400;2023-04-28T09:38:07;15.90;99.90
17333;DHT22;8784;50.94667800;7.08448400;2023-04-28T09:40:53;15.80;99.90
17333;DHT22;8784;50.94667800;7.08448400;2023-04-28T09:43:26;15.80;99.90
17333;DHT22;8784;50.94667800;7.08448400;2023-04-28T09:45:55;15.80;99.90
17333;DHT22;8784;50.94667800;7.08448400;2023-04-28T09:48:29;15.70;99.90
17333;DHT22;8784;50.94667800;7.08448400;2023-04-28T09:50:59;15.70;99.90
17333;DHT22;8784;50.94667800;7.08448400;2023-04-28T09:53:28;15.60;99.90
17333;DHT22;8784;50.94667800;7.08448400;2023-04-28T09:55:57;15.10;99.90
17333;DHT22;8784;50.94667800;7.08448400;2023-04-28T09:58:26;15.80;99.90
17333;DHT22;8784;50.94667800;7.08448400;2023-04-28T10:00:54;15.30;99.90
17333;DHT22;8784;50.94667800;7.08448400;2023-04-28T10:03:30;15.30;99.90
17333;DHT22;8784;50.94667800;7.08448400;2023-04-28T10:06:01;15.30;99.90
17333;DHT22;8784;50.94667800;7.08448400;2023-04-28T10:08:28;15.20;99.90
17333;DHT22;8784;50.94667800;7.08448400;2023-04-28T10:10:56;15.00;99.90
17333;DHT22;8784;50.94667800;7.08448400;2023-04-28T10:13:24;14.90;99.90
17333;DHT22;8784;50.94667800;7.08448400;2023-04-28T10:15:51;14.90;99.90
17333;DHT22;8784;50.94667800;7.08448400;2023-04-28T10:18:22;15.00;99.90
17333;DHT22;8784;50.94667800;7.08448400;2023-04-28T10:20:52;15.00;99.90
17333;DHT22;8784;50.94667800;7.08448400;2023-04-28T10:23:57;15.10;99.90
17333;DHT22;8784;50.94667800;7.08448400;2023-04-28T10:29:16;15.20;99.90
17333;DHT22;8784;50.94667800;7.08448400;2023-04-28T10:32:13;15.20;99.90
17333;DHT22;8784;50.94667800;7.08448400;2023-04-28T10:34:41;15.30;99.90
17333;DHT22;8784;50.94667800;7.08448400;2023-04-28T10:37:08;15.30;99.90
17333;DHT22;8784;50.94667800;7.08448400;2023-04-28T10:39:37;15.20;99.90
17333;DHT22;8784;50.94667800;7.08448400;2023-04-28T10:42:04;15.30;99.90
17333;DHT22;8784;50.94667800;7.08448400;2023-04-28T10:44:40;15.30;99.90
17333;DHT22;8784;50.94667800;7.08448400;2023-04-28T10:47:09;15.50;99.90
17333;DHT22;8784;50.94667800;7.08448400;2023-04-28T10:50:09;15.60;99.90
17333;DHT22;8784;50.94667800;7.08448400;2023-04-28T10:52:50;15.60;99.90
17333;DHT22;8784;50.94667800;7.08448400;2023-04-28T10:55:28;15.70;99.90
17333;DHT22;8784;50.94667800;7.08448400;2023-04-28T10:58:31;15.90;99.90
17333;DHT22;8784;50.94667800;7.08448400;2023-04-28T11:01:23;16.00;99.90
17333;DHT22;8784;50.94667800;7.08448400;2023-04-28T11:03:52;16.50;99.90
17333;DHT22;8784;50.94667800;7.08448400;2023-04-28T11:06:26;17.00;99.90
17333;DHT22;8784;50.94667800;7.08448400;2023-04-28T11:08:54;17.30;99.90
17333;DHT22;8784;50.94667800;7.08448400;2023-04-28T11:11:24;17.30;99.90
17333;DHT22;8784;50.94667800;7.08448400;2023-04-28T11:13:53;17.20;99.90
17333;DHT22;8784;50.94667800;7.08448400;2023-04-28T11:16:23;17.20;99.90
17333;DHT22;8784;50.94667800;7.08448400;2023-04-28T11:18:56;16.90;99.90
17333;DHT22;8784;50.94667800;7.08448400;2023-04-28T11:21:27;17.30;99.90
17333;DHT22;8784;50.94667800;7.08448400;2023-04-28T11:23:56;17.70;99.90
17333;DHT22;8784;50.94667800;7.08448400;2023-04-28T11:26:25;18.20;99.90
17333;DHT22;8784;50.94667800;7.08448400;2023-04-28T11:28:54;18.40;99.90
17333;DHT22;8784;50.94667800;7.08448400;2023-04-28T11:31:22;18.60;99.90
17333;DHT22;8784;50.94667800;7.08448400;2023-04-28T11:33:57;18.70;99.90
17333;DHT22;8784;50.94667800;7.08448400;2023-04-28T11:36:30;19.00;99.90
17333;DHT22;8784;50.94667800;7.08448400;2023-04-28T11:39:00;19.30;99.90
17333;DHT22;8784;50.94667800;7.08448400;2023-04-28T11:41:31;19.50;99.90
17333;DHT22;8784;50.94667800;7.08448400;2023-04-28T11:43:59;19.60;99.90
17333;DHT22;8784;50.94667800;7.08448400;2023-04-28T11:46:27;19.80;99.90
17333;DHT22;8784;50.94667800;7.08448400;2023-04-28T11:49:02;20.00;99.90
17333;DHT22;8784;50.94667800;7.08448400;2023-04-28T11:51:32;20.40;99.90
17333;DHT22;8784;50.94667800;7.08448400;2023-04-28T11:54:00;20.70;99.90
17333;DHT22;8784;50.94667800;7.08448400;2023-04-28T11:56:30;21.00;99.90
17333;DHT22;8784;50.94667800;7.08448400;2023-04-28T11:59:05;21.30;99.90
17333;DHT22;8784;50.94667800;7.08448400;2023-04-28T12:01:33;21.50;99.90
17333;DHT22;8784;50.94667800;7.08448400;2023-04-28T12:04:02;21.60;99.90
17333;DHT22;8784;50.94667800;7.08448400;2023-04-28T12:06:29;21.60;99.90
17333;DHT22;8784;50.94667800;7.08448400;2023-04-28T12:08:57;21.70;99.90
17333;DHT22;8784;50.94667800;7.08448400;2023-04-28T12:11:30;21.90;99.90
17333;DHT22;8784;50.94667800;7.08448400;2023-04-28T12:14:04;21.90;99.90
17333;DHT22;8784;50.94667800;7.08448400;2023-04-28T12:16:42;21.90;99.70
17333;DHT22;8784;50.94667800;7.08448400;2023-04-28T12:19:11;22.00;99.30
17333;DHT22;8784;50.94667800;7.08448400;2023-04-28T12:21:40;21.90;99.00
17333;DHT22;8784;50.94667800;7.08448400;2023-04-28T12:24:18;21.70;98.90
17333;DHT22;8784;50.94667800;7.08448400;2023-04-28T12:27:13;21.60;99.20
17333;DHT22;8784;50.94667800;7.08448400;2023-04-28T12:29:42;21.60;98.90
17333;DHT22;8784;50.94667800;7.08448400;2023-04-28T12:32:12;21.70;98.80
17333;DHT22;8784;50.94667800;7.08448400;2023-04-28T12:34:41;21.80;98.50
17333;DHT22;8784;50.94667800;7.08448400;2023-04-28T12:37:08;21.90;98.50
17333;DHT22;8784;50.94667800;7.08448400;2023-04-28T12:39:38;21.80;97.80
17333;DHT22;8784;50.94667800;7.08448400;2023-04-28T12:42:08;21.60;98.00
17333;DHT22;8784;50.94667800;7.08448400;2023-04-28T12:44:37;21.50;98.20
17333;DHT22;8784;50.94667800;7.08448400;2023-04-28T12:47:06;21.50;98.30
17333;DHT22;8784;50.94667800;7.08448400;2023-04-28T12:49:34;21.50;98.10
17333;DHT22;8784;50.94667800;7.08448400;2023-04-28T12:52:02;21.50;97.90
17333;DHT22;8784;50.94667800;7.08448400;2023-04-28T12:54:29;21.70;98.00
17333;DHT22;8784;50.94667800;7.08448400;2023-04-28T12:56:58;22.00;97.80
17333;DHT22;8784;50.94667800;7.08448400;2023-04-28T12:59:29;22.00;97.70
17333;DHT22;8784;50.94667800;7.08448400;2023-04-28T13:01:57;22.00;97.60
17333;DHT22;8784;50.94667800;7.08448400;2023-04-28T13:04:24;22.00;97.60
17333;DHT22;8784;50.94667800;7.08448400;2023-04-28T13:06:52;22.10;97.20
17333;DHT22;8784;50.94667800;7.08448400;2023-04-28T13:09:19;22.00;97.10
17333;DHT22;8784;50.94667800;7.08448400;2023-04-28T13:11:46;22.10;97.20
17333;DHT22;8784;50.94667800;7.08448400;2023-04-28T13:14:13;22.10;97.10
17333;DHT22;8784;50.94667800;7.08448400;2023-04-28T13:16:42;21.90;97.10
17333;DHT22;8784;50.94667800;7.08448400;2023-04-28T13:19:09;22.00;97.10
17333;DHT22;8784;50.94667800;7.08448400;2023-04-28T13:21:38;22.00;96.80
17333;DHT22;8784;50.94667800;7.08448400;2023-04-28T13:24:06;22.10;96.90
17333;DHT22;8784;50.94667800;7.08448400;2023-04-28T13:26:33;22.10;96.80
17333;DHT22;8784;50.94667800;7.08448400;2023-04-28T13:29:01;22.10;96.50
17333;DHT22;8784;50.94667800;7.08448400;2023-04-28T13:31:29;22.30;96.40
17333;DHT22;8784;50.94667800;7.08448400;2023-04-28T13:33:57;22.40;96.20
17333;DHT22;8784;50.94667800;7.08448400;2023-04-28T13:36:26;22.70;95.90
17333;DHT22;8784;50.94667800;7.08448400;2023-04-28T13:38:55;22.60;95.30
17333;DHT22;8784;50.94667800;7.08448400;2023-04-28T13:41:22;22.50;95.40
17333;DHT22;8784;50.94667800;7.08448400;2023-04-28T13:43:50;22.40;95.50
17333;DHT22;8784;50.94667800;7.08448400;2023-04-28T13:46:18;22.40;95.20